Chelsea, New York
Current Conditions -  °F | °C
As of 8:53 AM on Friday 24 Oct 2014 (Local Time) from KPOU Reporting Station
Overcast Overcast  
Wind Chill: 50°   Ceiling: 3400
Heat Index: 50°   Visibility: 10mi
Dew Point: 45°   Wind: 3mph
Humidity: 83%   Direction: 10°N
Pressure: 29.82"   Gusts: NA
Location:  41.55°N, 73.96°W
Report Text: KPOU 241253Z 01003KT 10SM OVC034 10/07 A2982 RMK AO2 RAB18E30 SLP096 P0000 T01000072
Loading
Personal Weather Stations






























Interactive Weather Map
Tropical Storm Tracking
New forecast layout! Learn more

10-Day Weather Forecast

Advertisements
Track Severe Weather on mobile